Time;durP1;ratioP1;P1;durP2;ratioP2;P2;SDS_P1;SDS_P2;PMS_P1;PMS_P2;Temp;Humidity;BMP_temperature;BMP_pressure;BME280_temperature;BME280_humidity;BME280_pressure;Samples;Min_cycle;Max_cycle;Signal;HPM_P1;HPM_P2
2022/05/16 00:02:13;;;;;;;13.70;6.42;;;;;;;10.67;63.63;98940.26;1674779;85;25586;-59
2022/05/16 00:04:44;;;;;;;12.05;6.17;;;;;;;10.58;63.88;98940.73;1674585;85;26003;-60
2022/05/16 00:07:11;;;;;;;12.85;6.35;;;;;;;10.49;64.12;98939.27;1674938;85;28619;-60
2022/05/16 00:09:38;;;;;;;11.85;6.40;;;;;;;10.47;64.15;98933.28;1674686;85;25667;-61
2022/05/16 00:12:07;;;;;;;11.90;6.03;;;;;;;10.44;64.48;98929.20;1674534;85;25675;-60
2022/05/16 00:14:33;;;;;;;12.20;6.15;;;;;;;10.44;64.44;98936.05;1674743;85;25712;-61
2022/05/16 00:16:59;;;;;;;10.32;6.08;;;;;;;10.49;64.59;98933.25;1674783;85;25503;-60
2022/05/16 00:19:25;;;;;;;15.15;6.20;;;;;;;10.46;64.54;98943.99;1674829;85;27471;-60
2022/05/16 00:21:52;;;;;;;14.65;7.50;;;;;;;10.53;64.47;98943.02;1674406;85;25680;-60
2022/05/16 00:24:20;;;;;;;14.90;8.20;;;;;;;10.56;64.37;98941.03;1674947;85;25695;-59
2022/05/16 00:26:45;;;;;;;15.13;7.72;;;;;;;10.54;64.40;98944.08;1674338;85;25695;-59
2022/05/16 00:29:11;;;;;;;17.57;8.48;;;;;;;10.50;64.37;98948.56;1674956;85;25452;-60
2022/05/16 00:31:38;;;;;;;17.70;8.73;;;;;;;10.45;64.39;98947.25;1674650;85;27463;-60
2022/05/16 00:34:04;;;;;;;15.43;7.12;;;;;;;10.31;64.63;98944.55;1674521;85;25622;-60
2022/05/16 00:36:30;;;;;;;12.95;7.75;;;;;;;10.19;64.78;98956.56;1674787;85;25461;-59
2022/05/16 00:38:56;;;;;;;13.30;7.60;;;;;;;10.11;65.00;98956.16;1674766;85;25740;-59
2022/05/16 00:41:22;;;;;;;12.73;7.80;;;;;;;10.10;64.98;98953.14;1674517;85;25495;-59
2022/05/16 00:43:56;;;;;;;18.02;8.08;;;;;;;10.10;65.04;98953.72;1674943;85;27485;-58
2022/05/16 00:46:26;;;;;;;12.70;7.20;;;;;;;10.08;65.06;98953.20;1673983;85;25710;-59
2022/05/16 00:48:53;;;;;;;11.55;6.65;;;;;;;10.05;65.16;98962.84;1674683;85;25635;-58
2022/05/16 00:51:39;;;;;;;12.15;7.35;;;;;;;10.02;65.30;98956.61;1674889;85;25596;-59
2022/05/16 00:54:26;;;;;;;12.88;7.12;;;;;;;10.05;65.27;98957.37;1670789;85;25758;-59
2022/05/16 00:56:58;;;;;;;14.03;7.60;;;;;;;9.93;65.52;98961.94;1665570;85;27623;-61
2022/05/16 00:59:29;;;;;;;15.32;7.67;;;;;;;9.91;65.70;98958.14;1674353;85;25620;-59
2022/05/16 01:04:50;;;;;;;11.57;7.42;;;;;;;10.03;65.58;98952.20;1674352;85;25604;-59
2022/05/16 01:07:29;;;;;;;15.48;7.33;;;;;;;9.94;65.67;98955.92;1674443;85;25509;-59
2022/05/16 01:09:55;;;;;;;13.00;7.35;;;;;;;9.82;66.04;98950.94;1674727;85;27393;-60
2022/05/16 01:12:26;;;;;;;13.78;7.53;;;;;;;9.69;66.75;98942.94;1674647;85;25483;-60
2022/05/16 01:14:57;;;;;;;12.15;7.10;;;;;;;9.53;67.35;98944.03;1674712;85;25635;-60
2022/05/16 01:17:24;;;;;;;11.35;7.35;;;;;;;9.43;67.08;98942.02;1674757;85;25751;-60
2022/05/16 01:19:51;;;;;;;12.20;7.30;;;;;;;9.34;67.41;98940.52;1674857;85;25622;-59
2022/05/16 01:22:43;;;;;;;11.50;6.95;;;;;;;9.29;67.34;98942.23;1682099;85;28293;-59
2022/05/16 01:25:23;;;;;;;13.62;6.80;;;;;;;9.31;67.35;98943.30;1682398;85;25681;-59
2022/05/16 01:27:54;;;;;;;11.15;6.78;;;;;;;9.28;67.39;98946.09;1682650;85;25740;-59
2022/05/16 01:30:30;;;;;;;13.03;6.70;;;;;;;9.29;67.54;98946.34;1682687;85;25681;-59
2022/05/16 01:32:57;;;;;;;11.45;6.40;;;;;;;9.45;67.36;98939.26;1682477;85;25618;-60
2022/05/16 01:35:28;;;;;;;13.22;6.97;;;;;;;9.52;67.04;98947.06;1682575;85;28313;-60
2022/05/16 01:40:41;;;;;;;11.40;7.37;;;;;;;9.53;67.19;98939.13;1682306;85;25661;-58
2022/05/16 01:43:08;;;;;;;11.97;7.20;;;;;;;9.57;67.03;98937.95;1682530;85;25799;-59
2022/05/16 01:45:36;;;;;;;13.25;7.65;;;;;;;9.59;67.03;98937.11;1682349;85;25633;-58
2022/05/16 01:48:02;;;;;;;16.05;7.90;;;;;;;9.58;67.00;98935.50;1682460;85;27466;-59
2022/05/16 01:50:29;;;;;;;11.90;7.35;;;;;;;9.54;66.89;98937.46;1682481;85;25719;-59
2022/05/16 01:52:55;;;;;;;14.05;7.05;;;;;;;9.43;67.03;98944.20;1682541;85;25497;-60
2022/05/16 01:55:21;;;;;;;13.30;7.58;;;;;;;9.34;67.28;98948.18;1682355;85;25852;-60
2022/05/16 01:57:48;;;;;;;13.40;7.47;;;;;;;9.31;67.23;98946.05;1682553;85;25505;-60
2022/05/16 02:00:16;;;;;;;14.68;8.25;;;;;;;9.33;67.36;98947.11;1682452;85;28273;-60
2022/05/16 02:02:43;;;;;;;17.35;8.50;;;;;;;9.34;67.22;98945.98;1682347;85;25539;-59
2022/05/16 02:05:13;;;;;;;12.78;7.78;;;;;;;9.30;67.26;98949.89;1682541;85;25617;-59
2022/05/16 02:07:39;;;;;;;16.52;8.18;;;;;;;9.26;67.40;98944.74;1682564;85;25685;-60
2022/05/16 02:10:08;;;;;;;12.98;7.10;;;;;;;9.21;67.39;98955.20;1682506;85;25465;-59
2022/05/16 02:12:35;;;;;;;14.15;7.20;;;;;;;9.18;67.49;98948.96;1682423;85;27403;-59
2022/05/16 02:15:05;;;;;;;12.58;7.40;;;;;;;9.14;67.47;98953.41;1682076;85;27191;-59
2022/05/16 02:17:31;;;;;;;17.15;7.65;;;;;;;9.20;67.56;98960.42;1682531;85;25651;-59
2022/05/16 02:19:57;;;;;;;15.90;7.75;;;;;;;9.26;67.57;98956.50;1682528;85;26484;-59
2022/05/16 02:25:09;;;;;;;16.30;8.33;;;;;;;9.20;67.44;98963.16;1674343;85;25633;-59
2022/05/16 02:27:35;;;;;;;13.38;7.50;;;;;;;9.15;67.51;98954.48;1674515;85;25869;-58
2022/05/16 02:30:01;;;;;;;14.30;7.50;;;;;;;9.12;67.69;98956.44;1674861;85;25605;-59
2022/05/16 02:32:27;;;;;;;13.03;7.65;;;;;;;9.04;67.58;98964.75;1674710;85;25707;-58
2022/05/16 02:34:52;;;;;;;13.62;7.70;;;;;;;8.88;67.89;98961.98;1674617;85;25700;-59
2022/05/16 02:37:18;;;;;;;12.78;7.90;;;;;;;8.71;68.32;98965.21;1674510;85;27393;-60
2022/05/16 02:39:45;;;;;;;14.80;8.18;;;;;;;8.67;68.49;98967.73;1674287;85;25599;-60
2022/05/16 02:42:14;;;;;;;14.45;7.65;;;;;;;8.62;68.62;98969.98;1674538;85;25440;-59
2022/05/16 02:44:44;;;;;;;16.12;7.95;;;;;;;8.59;68.80;98967.83;1674085;85;25720;-60
2022/05/16 02:47:14;;;;;;;13.83;8.20;;;;;;;8.68;68.75;98968.53;1674932;85;25623;-59
2022/05/16 02:49:41;;;;;;;14.18;7.92;;;;;;;8.75;68.48;98965.70;1673913;85;27453;-60
2022/05/16 02:52:08;;;;;;;14.83;8.33;;;;;;;8.66;68.48;98966.09;1674386;85;25762;-59
2022/05/16 02:54:34;;;;;;;13.65;7.90;;;;;;;8.58;68.61;98970.86;1674629;85;25500;-60
2022/05/16 02:57:01;;;;;;;15.25;7.67;;;;;;;8.52;68.89;98972.82;1674625;85;26391;-59
2022/05/16 02:59:32;;;;;;;12.30;7.53;;;;;;;8.53;69.01;98973.86;1674589;85;25715;-61
2022/05/16 03:01:55;;;;;;;11.83;7.47;;;;;;;8.54;68.92;98973.35;1673899;85;26700;-60
2022/05/16 03:04:21;;;;;;;12.40;7.78;;;;;;;8.43;69.45;98967.16;1674316;85;26167;-60
2022/05/16 03:06:47;;;;;;;15.05;7.47;;;;;;;8.31;69.59;98970.31;1674706;85;25823;-60
2022/05/16 03:09:13;;;;;;;14.23;7.03;;;;;;;8.29;69.62;98974.70;1674552;85;26482;-60
2022/05/16 03:11:39;;;;;;;13.78;7.33;;;;;;;8.34;69.70;98979.83;1674695;85;25484;-60
2022/05/16 03:14:05;;;;;;;13.60;6.85;;;;;;;8.35;69.47;98974.08;1674647;85;28180;-60
2022/05/16 03:16:31;;;;;;;9.85;6.75;;;;;;;8.38;69.62;98972.70;1674804;85;25599;-59
2022/05/16 03:18:56;;;;;;;15.75;7.12;;;;;;;8.41;69.59;98977.02;1674609;85;25520;-61
2022/05/16 03:21:23;;;;;;;12.18;7.97;;;;;;;8.50;69.66;98975.02;1677222;85;25716;-60
2022/05/16 03:23:49;;;;;;;14.00;8.53;;;;;;;8.50;69.43;98970.38;1682506;85;25504;-60
2022/05/16 03:26:15;;;;;;;16.07;9.38;;;;;;;8.49;69.53;98975.56;1682522;85;27571;-60
2022/05/16 03:28:41;;;;;;;14.18;8.40;;;;;;;8.52;69.58;98972.82;1682464;85;25705;-62
2022/05/16 03:31:09;;;;;;;14.70;8.68;;;;;;;8.57;69.84;98971.41;1682522;85;25511;-60
2022/05/16 03:33:35;;;;;;;21.10;8.30;;;;;;;8.68;69.81;98971.27;1682313;85;25720;-60
2022/05/16 03:36:01;;;;;;;22.40;11.78;;;;;;;8.74;69.42;98974.19;1682464;85;25588;-60
2022/05/16 03:41:14;;;;;;;13.80;9.05;;;;;;;8.91;69.77;98966.86;1682116;85;25633;-60
2022/05/16 03:43:41;;;;;;;18.12;11.03;;;;;;;8.96;69.54;98966.80;1682503;85;25567;-60
2022/05/16 03:46:09;;;;;;;21.85;10.80;;;;;;;8.99;69.86;98968.12;1682354;85;25824;-60
2022/05/16 03:48:35;;;;;;;16.87;10.63;;;;;;;9.13;69.93;98965.46;1682477;85;25520;-60
2022/05/16 03:51:04;;;;;;;17.80;10.93;;;;;;;9.28;69.81;98967.15;1682497;85;27353;-59
2022/05/16 03:53:31;;;;;;;22.05;12.50;;;;;;;9.44;69.96;98966.33;1682254;85;25808;-58
2022/05/16 03:55:57;;;;;;;19.62;11.45;;;;;;;9.57;69.80;98966.69;1682583;85;25627;-61
2022/05/16 03:58:23;;;;;;;15.95;9.50;;;;;;;9.75;70.05;98967.73;1656800;85;25710;-60
2022/05/16 04:00:49;;;;;;;15.28;9.40;;;;;;;9.88;68.82;98964.22;1682558;85;25464;-60
2022/05/16 04:03:15;;;;;;;17.05;9.30;;;;;;;9.98;68.64;98952.28;1682365;85;28300;-61
2022/05/16 04:05:42;;;;;;;16.23;8.63;;;;;;;10.08;68.56;98957.31;1682148;85;25714;-61
2022/05/16 04:08:09;;;;;;;12.07;8.95;;;;;;;10.20;68.34;98953.52;1682503;85;25519;-61
2022/05/16 04:10:35;;;;;;;14.20;8.63;;;;;;;10.32;68.18;98953.55;1682405;85;26535;-61
2022/05/16 04:13:01;;;;;;;15.53;8.88;;;;;;;10.44;68.02;98955.77;1682888;85;25466;-61
2022/05/16 04:15:27;;;;;;;15.10;9.18;;;;;;;10.57;67.85;98951.45;1682482;85;27544;-61
2022/05/16 04:17:53;;;;;;;16.93;8.95;;;;;;;10.71;67.92;98956.33;1682531;85;25456;-61
2022/05/16 04:20:21;;;;;;;16.40;9.43;;;;;;;10.85;67.41;98959.05;1682859;85;25439;-61
2022/05/16 04:22:47;;;;;;;15.85;10.08;;;;;;;11.03;67.60;98958.64;1676178;85;26420;-59
2022/05/16 04:25:18;;;;;;;16.40;10.80;;;;;;;11.26;66.98;98961.99;1674703;85;25686;-60
2022/05/16 04:27:44;;;;;;;16.67;10.15;;;;;;;11.47;66.45;98960.11;1675013;85;27439;-60
2022/05/16 04:30:17;;;;;;;18.37;10.72;;;;;;;11.71;66.43;98963.90;1674645;85;26112;-59
2022/05/16 04:32:45;;;;;;;19.73;10.28;;;;;;;11.95;65.92;98961.94;1674885;85;25707;-61
2022/05/16 04:35:12;;;;;;;15.23;8.85;;;;;;;12.15;65.57;98971.02;1674633;85;25717;-60
2022/05/16 04:37:39;;;;;;;22.90;9.75;;;;;;;12.20;65.12;98968.69;1674625;85;25436;-61
2022/05/16 04:40:09;;;;;;;17.20;9.95;;;;;;;12.24;65.22;98974.38;1674674;85;27441;-60
2022/05/16 04:42:40;;;;;;;22.10;11.70;;;;;;;12.34;65.19;98973.27;1674677;85;25624;-61
2022/05/16 04:45:18;;;;;;;17.25;9.28;;;;;;;12.44;65.23;98976.30;1674440;85;25624;-61
2022/05/16 04:47:48;;;;;;;21.45;9.70;;;;;;;12.66;65.06;98976.20;1675027;85;25915;-61
2022/05/16 04:50:19;;;;;;;17.55;9.30;;;;;;;12.85;64.80;98971.55;1673461;85;25485;-62
2022/05/16 04:52:46;;;;;;;18.37;9.23;;;;;;;13.02;64.57;98978.45;1674767;85;27600;-61
2022/05/16 04:55:13;;;;;;;14.15;8.68;;;;;;;13.13;64.17;98972.63;1674502;85;25655;-62
2022/05/16 04:57:40;;;;;;;19.87;9.48;;;;;;;13.16;64.26;98975.52;1674646;85;25446;-61
2022/05/16 05:00:11;;;;;;;22.52;9.15;;;;;;;13.29;64.08;98974.31;1674723;85;25755;-61
2022/05/16 05:02:38;;;;;;;15.55;8.63;;;;;;;13.40;63.94;98974.24;1675188;85;25474;-61
2022/05/16 05:05:07;;;;;;;14.00;7.97;;;;;;;13.51;63.71;98967.05;1674862;85;27413;-62
2022/05/16 05:07:36;;;;;;;11.65;7.72;;;;;;;13.64;63.38;98976.25;1666847;85;26057;-63
2022/05/16 05:15:41;;;;;;;18.02;8.65;;;;;;;14.18;63.06;98972.22;1666915;85;25613;-63
2022/05/16 05:18:08;;;;;;;18.75;8.30;;;;;;;14.40;62.25;98973.11;1672058;85;27415;-63
2022/05/16 05:20:35;;;;;;;17.82;8.28;;;;;;;14.57;62.42;98967.27;1671420;85;25637;-63
2022/05/16 05:23:04;;;;;;;21.02;9.43;;;;;;;14.76;61.32;98968.19;1679524;84;25465;-63
2022/05/16 05:25:31;;;;;;;15.45;8.60;;;;;;;14.79;61.47;98979.41;1681406;85;25380;-63
2022/05/16 05:28:02;;;;;;;16.85;8.55;;;;;;;14.88;61.61;98962.78;1681647;85;25765;-63
2022/05/16 05:30:30;;;;;;;21.02;10.18;;;;;;;15.12;61.02;98977.89;1666034;85;27544;-63
2022/05/16 05:32:57;;;;;;;17.20;9.55;;;;;;;15.26;61.09;98976.81;1665735;85;25680;-62
2022/05/16 05:35:26;;;;;;;18.27;10.03;;;;;;;15.45;60.77;98985.97;1679167;85;25451;-63
2022/05/16 05:37:55;;;;;;;17.20;9.68;;;;;;;15.40;60.43;98976.53;1681264;85;25738;-63
2022/05/16 05:40:21;;;;;;;16.62;9.05;;;;;;;15.53;60.10;98968.53;1668062;85;25676;-63
2022/05/16 05:42:49;;;;;;;21.55;11.80;;;;;;;15.55;59.95;98973.12;1680529;83;27393;-63
2022/05/16 05:45:17;;;;;;;18.77;10.58;;;;;;;15.66;60.11;98976.86;1681717;83;25794;-63
2022/05/16 05:47:43;;;;;;;19.15;10.38;;;;;;;15.72;59.45;98968.59;1679701;85;25668;-63
2022/05/16 05:50:10;;;;;;;18.20;10.15;;;;;;;15.72;59.45;98968.59;1669858;85;26463;-63
2022/05/16 05:52:38;;;;;;;17.25;10.05;;;;;;;15.91;59.08;98979.11;1677656;83;25714;-63
2022/05/16 05:55:07;;;;;;;17.32;9.60;;;;;;;16.04;59.34;98972.25;1680966;85;27658;-62
2022/05/16 05:57:33;;;;;;;20.32;9.85;;;;;;;16.18;58.78;98969.95;1677731;85;25719;-62
2022/05/16 06:00:00;;;;;;;17.37;10.05;;;;;;;16.16;58.42;98973.66;1656123;85;25790;-63
2022/05/16 06:02:26;;;;;;;18.90;10.43;;;;;;;16.30;58.40;98968.37;1663902;85;25961;-63
2022/05/16 06:04:53;;;;;;;18.32;10.05;;;;;;;16.46;58.04;98963.53;1681750;85;25811;-63
2022/05/16 06:07:19;;;;;;;24.27;11.68;;;;;;;16.49;58.16;98960.08;1682621;85;28344;-63
2022/05/16 06:09:45;;;;;;;14.55;9.45;;;;;;;16.77;57.87;98964.87;1682696;85;25658;-63
2022/05/16 06:12:11;;;;;;;16.90;9.50;;;;;;;17.02;57.27;98971.19;1682946;85;25619;-62
2022/05/16 06:14:38;;;;;;;18.70;9.45;;;;;;;17.28;56.81;98968.61;1683009;85;25953;-58
2022/05/16 06:17:06;;;;;;;15.48;9.75;;;;;;;17.58;56.46;98975.74;1682892;85;25689;-59
2022/05/16 06:19:34;;;;;;;14.60;9.45;;;;;;;17.77;56.38;98982.02;1683008;85;28133;-62
2022/05/16 06:22:00;;;;;;;13.90;8.68;;;;;;;17.93;55.43;98971.51;1681930;85;25499;-59
2022/05/16 06:27:13;;;;;;;15.83;9.00;;;;;;;18.25;52.99;98984.04;1679483;85;25667;-60
2022/05/16 06:29:40;;;;;;;15.35;9.05;;;;;;;18.22;53.17;98982.59;1679695;85;25453;-59
2022/05/16 06:32:07;;;;;;;19.15;9.15;;;;;;;18.29;53.12;98986.92;1679658;85;27413;-62
2022/05/16 06:34:33;;;;;;;15.68;8.75;;;;;;;18.39;53.45;98981.42;1679380;85;25692;-62
2022/05/16 06:37:00;;;;;;;13.65;8.23;;;;;;;18.58;53.80;98977.91;1679824;85;25666;-60
2022/05/16 06:39:26;;;;;;;13.80;8.63;;;;;;;18.79;52.76;98970.66;1679755;85;25804;-60
2022/05/16 06:41:52;;;;;;;15.23;8.40;;;;;;;19.01;52.72;98974.48;1679773;85;25654;-59
2022/05/16 06:44:19;;;;;;;16.62;8.43;;;;;;;19.22;50.79;98976.13;1680065;85;27619;-61
2022/05/16 06:46:46;;;;;;;13.10;8.73;;;;;;;19.18;50.10;98974.11;1679364;85;26372;-62
2022/05/16 06:49:46;;;;;;;14.10;8.88;;;;;;;19.32;50.88;98976.97;1679340;85;25421;-63
2022/05/16 06:52:12;;;;;;;15.00;8.90;;;;;;;19.61;50.45;98978.11;1680059;85;26665;-58
2022/05/16 06:54:38;;;;;;;16.67;9.13;;;;;;;19.77;49.48;98982.99;1679944;85;25625;-59
2022/05/16 06:57:05;;;;;;;13.40;8.55;;;;;;;19.89;49.42;98982.02;1679569;85;27809;-58
2022/05/16 06:59:31;;;;;;;16.07;8.55;;;;;;;20.01;49.58;98976.07;1679453;85;25678;-58
2022/05/16 07:01:58;;;;;;;18.50;9.53;;;;;;;20.23;48.89;98982.83;1675983;85;25885;-58
2022/05/16 07:04:24;;;;;;;14.18;9.08;;;;;;;20.33;48.74;98984.78;1679694;85;26148;-58
2022/05/16 07:06:50;;;;;;;16.65;8.78;;;;;;;20.55;47.54;98985.34;1679767;85;25690;-62
2022/05/16 07:09:17;;;;;;;13.25;7.78;;;;;;;20.75;48.20;98990.80;1679979;85;27590;-63
2022/05/16 07:11:45;;;;;;;14.43;7.28;;;;;;;20.88;46.21;98991.41;1679584;85;25699;-62
2022/05/16 07:14:11;;;;;;;20.10;7.72;;;;;;;21.05;47.72;98985.09;1679744;85;25647;-63
2022/05/16 07:16:38;;;;;;;11.00;6.55;;;;;;;21.45;45.38;98982.81;1679436;85;26288;-63
2022/05/16 07:19:05;;;;;;;11.03;6.22;;;;;;;21.65;45.68;98987.60;1679640;85;25413;-63
2022/05/16 07:21:31;;;;;;;7.90;4.28;;;;;;;21.89;45.11;98992.48;1679664;85;27367;-63
2022/05/16 07:23:58;;;;;;;7.90;3.58;;;;;;;22.06;39.66;98998.05;1679477;85;25470;-63
2022/05/16 07:29:09;;;;;;;5.40;2.90;;;;;;;22.28;40.61;98991.23;1679437;85;25727;-63
2022/05/16 07:31:36;;;;;;;11.65;4.08;;;;;;;22.53;38.53;98992.63;1668696;85;25697;-62
2022/05/16 07:34:04;;;;;;;5.60;3.20;;;;;;;22.67;37.02;99000.34;1678477;85;28502;-63
2022/05/16 07:36:30;;;;;;;6.08;2.95;;;;;;;22.81;37.92;98990.69;1679602;85;25509;-63
2022/05/16 07:38:57;;;;;;;5.58;3.30;;;;;;;23.01;35.58;98989.59;1679423;85;25699;-62
2022/05/16 07:41:30;;;;;;;6.45;2.80;;;;;;;23.29;36.58;98995.13;1679886;85;25963;-63
2022/05/16 07:43:58;;;;;;;4.42;3.10;;;;;;;23.59;36.13;98982.88;1678614;85;25505;-64
2022/05/16 07:46:26;;;;;;;4.45;2.58;;;;;;;23.73;35.06;98984.92;1679846;85;27432;-62
2022/05/16 07:48:53;;;;;;;5.92;2.50;;;;;;;23.94;34.18;98986.16;1679101;85;25710;-61
2022/05/16 07:51:35;;;;;;;4.65;2.27;;;;;;;24.17;34.91;98987.22;1679566;85;25630;-62
2022/05/16 07:54:02;;;;;;;7.55;2.90;;;;;;;24.50;32.04;98984.43;1679523;85;25738;-62
2022/05/16 07:56:29;;;;;;;3.50;2.05;;;;;;;24.48;32.98;98984.61;1679799;85;25590;-64
2022/05/16 07:58:55;;;;;;;3.02;1.42;;;;;;;24.81;32.84;98984.77;1679446;85;27518;-60
2022/05/16 08:01:22;;;;;;;3.12;1.32;;;;;;;25.13;30.47;98989.34;1679481;85;25698;-57
2022/05/16 08:03:48;;;;;;;6.83;3.22;;;;;;;25.15;29.88;98981.30;1679569;85;25521;-62
2022/05/16 08:06:15;;;;;;;5.45;2.62;;;;;;;25.17;31.20;98977.50;1679506;85;25781;-62
2022/05/16 08:11:26;;;;;;;5.08;1.92;;;;;;;25.59;31.42;98974.94;1679518;85;27481;-57
2022/05/16 08:13:53;;;;;;;3.52;1.80;;;;;;;25.65;30.67;98972.52;1679737;85;25460;-58
2022/05/16 08:16:20;;;;;;;4.53;1.62;;;;;;;25.82;30.10;98970.82;1679703;85;25664;-58
2022/05/16 08:18:47;;;;;;;3.42;1.72;;;;;;;26.14;30.74;98970.39;1679525;85;25800;-57
2022/05/16 08:21:13;;;;;;;4.42;1.60;;;;;;;26.40;29.23;98969.61;1679709;85;25681;-56
2022/05/16 08:23:41;;;;;;;1.92;1.10;;;;;;;26.56;28.35;98970.45;1679501;85;28028;-60
2022/05/16 08:26:08;;;;;;;3.12;1.30;;;;;;;26.74;29.34;98966.06;1679998;85;25493;-60
2022/05/16 08:28:36;;;;;;;4.22;1.65;;;;;;;26.86;28.12;98971.78;1679787;85;25504;-62
2022/05/16 08:31:03;;;;;;;4.58;1.20;;;;;;;27.03;27.52;98971.41;1679523;85;25732;-62
2022/05/16 08:33:32;;;;;;;2.00;1.20;;;;;;;27.09;27.93;98970.95;1679993;85;25611;-63
2022/05/16 08:41:33;;;;;;;2.08;1.25;;;;;;;28.01;26.59;98960.88;1679509;85;25673;-63
2022/05/16 08:44:11;;;;;;;6.45;1.52;;;;;;;28.03;25.69;98960.45;1679522;85;26950;-63
2022/05/16 08:46:50;;;;;;;3.83;1.80;;;;;;;27.91;25.37;98962.66;1680005;84;25632;-62
2022/05/16 08:49:34;;;;;;;4.33;1.85;;;;;;;28.04;26.85;98969.11;1678945;85;27587;-61
2022/05/16 08:52:27;;;;;;;3.40;1.40;;;;;;;27.99;26.34;98962.53;1656983;85;25954;-62
2022/05/16 08:55:17;;;;;;;3.15;1.40;;;;;;;27.96;25.13;98958.56;1623510;88;25787;-63
2022/05/16 08:58:23;;;;;;;3.27;1.50;;;;;;;28.28;24.75;98952.21;1621006;88;25843;-63
2022/05/16 09:01:02;;;;;;;2.30;1.40;;;;;;;28.54;24.82;98956.83;1621188;88;25567;-63
2022/05/16 09:04:00;;;;;;;3.25;1.22;;;;;;;28.92;25.35;98955.11;1621262;88;27491;-59
2022/05/16 09:06:35;;;;;;;2.52;1.37;;;;;;;29.55;23.29;98956.87;1621069;88;25487;-58
2022/05/16 09:09:15;;;;;;;3.37;1.50;;;;;;;29.53;23.71;98956.50;1621507;88;25549;-63
2022/05/16 09:12:08;;;;;;;3.47;1.52;;;;;;;29.22;22.87;98951.73;1620920;88;25702;-58
2022/05/16 09:14:52;;;;;;;3.05;1.30;;;;;;;28.60;22.88;98950.88;1621261;88;25482;-60
2022/05/16 09:17:55;;;;;;;3.05;1.30;;;;;;;28.01;23.12;98953.06;1621169;88;27500;-61
2022/05/16 09:20:39;;;;;;;3.05;1.50;;;;;;;28.11;23.40;98954.90;1621158;88;25736;-59
2022/05/16 09:23:20;;;;;;;4.22;1.20;;;;;;;28.39;23.33;98951.45;1620215;87;25733;-58
2022/05/16 09:25:57;;;;;;;3.15;1.30;;;;;;;28.93;23.02;98951.05;1577958;90;25735;-59
2022/05/16 09:28:37;;;;;;;3.42;1.60;;;;;;;29.37;22.34;98955.05;1577574;90;25579;-58
2022/05/16 09:31:11;;;;;;;2.62;1.20;;;;;;;29.57;21.71;98946.58;1538904;93;27508;-58
2022/05/16 09:33:52;;;;;;;3.22;1.20;;;;;;;29.77;22.72;98947.14;1543995;91;25965;-58
2022/05/16 09:36:26;;;;;;;2.77;1.32;;;;;;;29.91;22.14;98950.25;1580990;90;25752;-59
2022/05/16 09:38:52;;;;;;;3.55;1.50;;;;;;;30.15;21.13;98940.19;1581175;90;25837;-58
2022/05/16 09:41:36;;;;;;;2.40;0.93;;;;;;;30.42;21.38;98941.95;1581355;90;25492;-59
2022/05/16 09:44:26;;;;;;;2.50;1.20;;;;;;;30.57;19.77;98938.75;1580662;90;27501;-58
2022/05/16 09:47:14;;;;;;;3.17;2.00;;;;;;;30.30;20.72;98944.88;1581210;90;25588;-58
2022/05/16 09:49:42;;;;;;;2.67;1.80;;;;;;;30.24;21.37;98941.00;1575108;90;25538;-62
2022/05/16 09:52:19;;;;;;;2.40;1.22;;;;;;;30.15;20.36;98938.16;1580890;90;25767;-62
2022/05/16 09:54:59;;;;;;;3.00;1.52;;;;;;;30.44;21.30;98946.55;1580847;90;25777;-62
2022/05/16 09:57:26;;;;;;;2.30;1.27;;;;;;;30.68;21.89;98948.53;1581300;90;27507;-61
2022/05/16 09:59:58;;;;;;;1.90;1.20;;;;;;;31.11;22.57;98944.34;1581055;90;25795;-62
2022/05/16 10:02:37;;;;;;;2.85;1.42;;;;;;;31.05;23.53;98940.48;1609006;85;25545;-60
2022/05/16 10:05:26;;;;;;;3.40;1.77;;;;;;;31.13;22.13;98945.31;1678531;85;25694;-62
2022/05/16 10:08:02;;;;;;;;;;;;;;;31.53;21.78;98939.31;1679357;85;25675;-62
2022/05/16 10:10:37;;;;;;;1.82;1.20;;;;;;;31.77;22.06;98939.58;1677620;85;27706;-60
2022/05/16 10:13:05;;;;;;;2.60;1.30;;;;;;;32.18;21.08;98935.03;1663828;85;44012;-61
2022/05/16 10:15:35;;;;;;;3.12;1.40;;;;;;;32.68;20.07;98932.37;1677990;85;25422;-62
2022/05/16 10:18:07;;;;;;;2.27;1.30;;;;;;;31.89;20.06;98931.70;1678193;85;25829;-62
2022/05/16 10:20:39;;;;;;;3.00;1.20;;;;;;;31.37;19.42;98927.44;1678276;84;25512;-62
2022/05/16 10:23:22;;;;;;;3.33;1.17;;;;;;;31.23;20.45;98927.22;1678429;84;27380;-60
2022/05/16 10:25:54;;;;;;;3.15;1.32;;;;;;;30.95;20.18;98918.34;1693228;84;25424;-60
2022/05/16 10:28:26;;;;;;;4.05;1.30;;;;;;;31.21;19.93;98924.67;1673381;84;25479;-61
2022/05/16 10:33:41;;;;;;;2.58;1.10;;;;;;;31.44;20.57;98925.02;1700302;84;25477;-63
2022/05/16 10:36:13;;;;;;;3.52;1.42;;;;;;;32.04;20.50;98927.80;1705216;84;26939;-63
2022/05/16 10:38:47;;;;;;;4.62;1.70;;;;;;;32.70;19.85;98923.39;1702799;84;26090;-63
2022/05/16 10:41:37;;;;;;;4.65;1.45;;;;;;;32.64;19.86;98926.04;1704010;84;25640;-61
2022/05/16 10:44:12;;;;;;;2.77;1.40;;;;;;;32.60;20.09;98931.02;1704790;84;25733;-64
2022/05/16 10:46:44;;;;;;;3.52;1.30;;;;;;;32.71;20.89;98919.30;1705233;84;25492;-63
2022/05/16 10:49:16;;;;;;;2.33;1.40;;;;;;;32.81;19.85;98919.52;1704878;82;25899;-62
2022/05/16 10:52:10;;;;;;;2.33;1.30;;;;;;;32.98;19.58;98921.55;1705174;84;25682;-63
2022/05/16 10:54:37;;;;;;;3.90;1.40;;;;;;;33.34;19.47;98918.01;1704692;84;25503;-63
2022/05/16 10:57:25;;;;;;;4.55;1.30;;;;;;;33.17;20.28;98911.14;1704978;84;26166;-60
2022/05/16 11:00:15;;;;;;;2.67;1.17;;;;;;;33.12;18.92;98915.19;1704534;84;25624;-63
2022/05/16 11:02:59;;;;;;;2.72;1.40;;;;;;;33.17;20.44;98904.04;1705145;84;27475;-56
2022/05/16 11:06:03;;;;;;;2.72;1.20;;;;;;;32.85;19.50;98910.27;1704260;84;25644;-58
2022/05/16 11:08:40;;;;;;;3.52;1.50;;;;;;;32.39;19.13;98901.54;1704990;84;25673;-58
2022/05/16 11:11:27;;;;;;;3.35;1.30;;;;;;;32.35;20.99;98902.91;1705053;84;25724;-62
2022/05/16 11:14:14;;;;;;;3.50;1.47;;;;;;;32.33;20.26;98895.48;1703431;84;25609;-61
2022/05/16 11:16:41;;;;;;;2.85;1.17;;;;;;;32.50;20.26;98898.35;1704292;84;28405;-61
2022/05/16 11:19:46;;;;;;;2.70;1.17;;;;;;;32.82;19.35;98900.47;1704825;84;25492;-63
2022/05/16 11:22:28;;;;;;;1.65;1.02;;;;;;;33.11;18.48;98898.80;1705165;84;25476;-63
2022/05/16 11:25:27;;;;;;;3.50;1.32;;;;;;;32.31;19.11;98910.11;1703046;84;25789;-63
2022/05/16 11:28:13;;;;;;;1.80;1.32;;;;;;;32.57;19.73;98903.58;1642202;87;25526;-63
2022/05/16 11:30:59;;;;;;;4.10;1.20;;;;;;;33.10;19.08;98894.36;1643260;87;27500;-63
2022/05/16 11:33:48;;;;;;;2.83;1.30;;;;;;;33.70;19.59;98890.23;1648108;86;26157;-63
2022/05/16 11:36:34;;;;;;;4.45;1.32;;;;;;;33.72;17.88;98889.15;1645322;86;25506;-63
2022/05/16 11:39:15;;;;;;;4.30;1.20;;;;;;;33.74;18.79;98883.00;1642542;87;25740;-63
2022/05/16 11:42:10;;;;;;;1.62;1.07;;;;;;;33.98;18.56;98880.37;1642541;87;25681;-63
2022/05/16 11:44:59;;;;;;;3.08;1.10;;;;;;;33.80;18.90;98878.28;1643057;87;27486;-63
2022/05/16 11:47:39;;;;;;;4.27;1.23;;;;;;;33.53;17.35;98870.58;1641589;87;26271;-64
2022/05/16 11:50:23;;;;;;;1.85;1.30;;;;;;;32.97;17.72;98858.95;1616877;87;26030;-63
2022/05/16 11:53:07;;;;;;;4.28;1.50;;;;;;;32.61;18.06;98863.91;1616776;88;25787;-59
2022/05/16 12:01:28;;;;;;;2.30;1.07;;;;;;;33.21;19.02;98862.72;1616540;88;25728;-63
2022/05/16 12:04:24;;;;;;;2.90;1.00;;;;;;;33.08;19.11;98858.56;1631078;87;25662;-61
2022/05/16 12:07:00;;;;;;;3.15;1.12;;;;;;;33.15;18.75;98862.54;1639460;87;25765;-61
2022/05/16 12:09:36;;;;;;;3.98;1.30;;;;;;;33.40;17.70;98857.13;1635611;87;25873;-58
2022/05/16 12:12:11;;;;;;;2.52;1.50;;;;;;;33.65;17.25;98851.09;1635322;87;27555;-59
2022/05/16 12:14:42;;;;;;;3.02;1.25;;;;;;;33.68;17.11;98853.00;1639140;87;25751;-61
2022/05/16 12:17:19;;;;;;;2.87;1.20;;;;;;;33.85;16.59;98854.94;1639466;87;25695;-61
2022/05/16 12:19:54;;;;;;;2.58;1.15;;;;;;;33.80;15.92;98852.70;1634428;87;25708;-60
2022/05/16 12:22:42;;;;;;;4.20;2.60;;;;;;;33.94;16.34;98849.89;1639442;87;25668;-61
2022/05/16 12:25:28;;;;;;;3.25;1.30;;;;;;;34.12;16.07;98844.85;1640493;87;27607;-61
2022/05/16 12:28:31;;;;;;;4.00;1.70;;;;;;;34.21;15.52;98843.30;1675151;84;25649;-63
2022/05/16 12:31:00;;;;;;;3.72;1.20;;;;;;;34.28;16.18;98839.50;1693879;84;25656;-62